Time;durP1;ratioP1;P1;durP2;ratioP2;P2;SDS_P1;SDS_P2;PMS_P1;PMS_P2;Temp;Humidity;BMP_temperature;BMP_pressure;BME280_temperature;BME280_humidity;BME280_pressure;Samples;Min_cycle;Max_cycle;Signal;HPM_P1;HPM_P2
2024/04/17 00:00:14;;;;;;;7.57;6.40;;;;;;;;;;5362924;26;19993;-94
2024/04/17 00:02:48;;;;;;;8.40;7.70;;;;;;;;;;5268811;26;20005;-93
2024/04/17 00:05:24;;;;;;;8.23;7.57;;;;;;;;;;5338978;26;20007;-93
2024/04/17 00:13:59;;;;;;;9.05;7.32;;;;;;;;;;5396147;26;20062;-93
2024/04/17 00:19:52;;;;;;;12.18;10.90;;;;;;;;;;5399066;26;20038;-93
2024/04/17 00:22:44;;;;;;;11.57;10.48;;;;;;;;;;5409875;26;19999;-93
2024/04/17 00:29:00;;;;;;;13.27;11.93;;;;;;;;;;5391749;26;20000;-95
2024/04/17 00:35:10;;;;;;;15.00;13.68;;;;;;;;;;5397604;26;20046;-94
2024/04/17 00:37:59;;;;;;;16.77;14.65;;;;;;;;;;5402968;26;20014;-94
2024/04/17 00:40:35;;;;;;;14.02;12.45;;;;;;;;;;5399887;26;20024;-94
2024/04/17 00:43:01;;;;;;;14.25;12.88;;;;;;;;;;5397919;26;20007;-92
2024/04/17 00:45:44;;;;;;;13.55;12.30;;;;;;;;;;5381766;26;20000;-92
2024/04/17 00:48:44;;;;;;;13.02;11.82;;;;;;;;;;5395117;26;19996;-92
2024/04/17 00:51:14;;;;;;;13.40;12.07;;;;;;;;;;5364873;26;20000;-93
2024/04/17 00:53:46;;;;;;;9.23;7.22;;;;;;;;;;5364219;26;20007;-93
2024/04/17 00:56:18;;;;;;;15.70;14.07;;;;;;;;;;5378812;26;20032;-94
2024/04/17 00:58:50;;;;;;;15.65;14.18;;;;;;;;;;5340752;26;19991;-93
2024/04/17 01:01:41;;;;;;;13.65;12.20;;;;;;;;;;5405959;26;19995;-93
2024/04/17 01:04:10;;;;;;;13.93;12.57;;;;;;;;;;5402150;26;19991;-94
2024/04/17 01:06:36;;;;;;;8.40;7.60;;;;;;;;;;5402587;26;19995;-92
2024/04/17 01:09:44;;;;;;;15.55;14.13;;;;;;;;;;5394904;26;19992;-93
2024/04/17 01:15:22;;;;;;;10.30;9.40;;;;;;;;;;5399130;26;19995;-95
2024/04/17 01:17:57;;;;;;;14.95;13.60;;;;;;;;;;5368693;26;20028;-92
2024/04/17 01:20:32;;;;;;;12.07;10.88;;;;;;;;;;5394077;26;19992;-93
2024/04/17 01:23:25;;;;;;;15.75;14.05;;;;;;;;;;5395921;26;19992;-94
2024/04/17 01:29:19;;;;;;;8.45;7.57;;;;;;;;;;5293906;27;20040;-91
2024/04/17 01:31:52;;;;;;;12.00;10.93;;;;;;;;;;5254395;27;20005;-92
2024/04/17 01:35:11;;;;;;;15.52;14.05;;;;;;;;;;5294024;27;20029;-94
2024/04/17 01:37:41;;;;;;;19.00;17.25;;;;;;;;;;5290200;27;19994;-93
2024/04/17 01:40:29;;;;;;;15.43;13.88;;;;;;;;;;5263085;27;20018;-92
2024/04/17 01:43:08;;;;;;;12.98;11.77;;;;;;;;;;5290000;27;20041;-95
2024/04/17 01:48:50;;;;;;;15.05;13.50;;;;;;;;;;5290711;27;20009;-95
2024/04/17 01:51:48;;;;;;;17.75;16.08;;;;;;;;;;5252569;27;19995;-94
2024/04/17 01:54:23;;;;;;;15.65;14.25;;;;;;;;;;5259953;27;20019;-93
2024/04/17 01:56:51;;;;;;;12.77;11.75;;;;;;;;;;5253137;27;20003;-92
2024/04/17 01:59:22;;;;;;;17.60;15.82;;;;;;;;;;5303141;26;20000;-93
2024/04/17 02:02:21;;;;;;;14.68;13.23;;;;;;;;;;5294329;27;20014;-93
2024/04/17 02:05:08;;;;;;;16.05;14.40;;;;;;;;;;5305476;26;19996;-95
2024/04/17 02:07:53;;;;;;;8.30;7.05;;;;;;;;;;5397008;26;20008;-93
2024/04/17 02:10:30;;;;;;;9.68;8.80;;;;;;;;;;5345714;26;20039;-95
2024/04/17 02:13:03;;;;;;;12.10;9.23;;;;;;;;;;5399236;26;20046;-94
2024/04/17 02:15:53;;;;;;;13.98;11.98;;;;;;;;;;5399844;26;20042;-94
2024/04/17 02:18:20;;;;;;;12.10;9.50;;;;;;;;;;5360214;26;20011;-93
2024/04/17 02:20:47;;;;;;;14.07;11.95;;;;;;;;;;5394923;26;20016;-93
2024/04/17 02:26:47;;;;;;;13.75;10.88;;;;;;;;;;5322795;27;20000;-93
2024/04/17 02:29:16;;;;;;;10.68;8.13;;;;;;;;;;5293435;27;20001;-92
2024/04/17 02:31:43;;;;;;;12.68;9.70;;;;;;;;;;5292406;27;19993;-93
2024/04/17 02:34:17;;;;;;;13.90;12.48;;;;;;;;;;5322981;27;20470;-91
2024/04/17 02:37:05;;;;;;;10.55;9.43;;;;;;;;;;5322972;27;19997;-93
2024/04/17 02:39:42;;;;;;;9.30;8.32;;;;;;;;;;5296829;27;20089;-92
2024/04/17 02:42:08;;;;;;;8.77;7.78;;;;;;;;;;5340468;26;20000;-92
2024/04/17 02:44:59;;;;;;;8.00;7.30;;;;;;;;;;5360028;26;20443;-92
2024/04/17 02:47:57;;;;;;;6.85;6.25;;;;;;;;;;5333094;26;20458;-92
2024/04/17 02:50:34;;;;;;;11.57;10.73;;;;;;;;;;5358682;26;20005;-92
2024/04/17 02:53:23;;;;;;;8.07;7.35;;;;;;;;;;5294573;26;20005;-93
2024/04/17 02:55:53;;;;;;;9.88;8.95;;;;;;;;;;5325052;27;20012;-92
2024/04/17 02:58:38;;;;;;;7.57;6.97;;;;;;;;;;5367488;26;20004;-94
2024/04/17 03:04:47;;;;;;;9.48;8.77;;;;;;;;;;5283933;27;20042;-93
2024/04/17 03:07:13;;;;;;;7.95;7.25;;;;;;;;;;5227114;27;20003;-94
2024/04/17 03:09:39;;;;;;;14.25;9.75;;;;;;;;;;5233971;27;20010;-92
2024/04/17 03:12:40;;;;;;;6.13;5.63;;;;;;;;;;5261178;27;20121;-93
2024/04/17 03:15:54;;;;;;;8.55;7.90;;;;;;;;;;5291584;27;20014;-93
2024/04/17 03:18:25;;;;;;;10.65;9.70;;;;;;;;;;5265434;27;20018;-93
2024/04/17 03:21:08;;;;;;;8.95;8.15;;;;;;;;;;5265612;27;19998;-92
2024/04/17 03:23:46;;;;;;;9.40;8.68;;;;;;;;;;5247771;27;19999;-92
2024/04/17 03:26:13;;;;;;;6.35;5.88;;;;;;;;;;5262548;27;19999;-93
2024/04/17 03:29:04;;;;;;;6.32;5.82;;;;;;;;;;5286400;27;20173;-93
2024/04/17 03:31:30;;;;;;;10.00;9.30;;;;;;;;;;5267816;27;19998;-93
2024/04/17 03:34:03;;;;;;;6.68;6.18;;;;;;;;;;5298423;26;19995;-93
2024/04/17 03:37:01;;;;;;;7.60;7.10;;;;;;;;;;5400513;26;20000;-94
2024/04/17 03:42:34;;;;;;;7.97;7.38;;;;;;;;;;5400097;26;20003;-94
2024/04/17 03:45:27;;;;;;;8.02;7.47;;;;;;;;;;5382817;26;20001;-94
2024/04/17 03:48:14;;;;;;;6.65;6.15;;;;;;;;;;5394986;26;19996;-94
2024/04/17 03:51:28;;;;;;;8.48;7.85;;;;;;;;;;5366314;26;19996;-95
2024/04/17 03:54:02;;;;;;;8.90;7.88;;;;;;;;;;5396190;26;20005;-96
2024/04/17 03:56:33;;;;;;;7.65;6.97;;;;;;;;;;5362693;26;20050;-93
2024/04/17 03:58:59;;;;;;;7.25;6.60;;;;;;;;;;5357845;26;20006;-94
2024/04/17 04:01:27;;;;;;;8.48;7.85;;;;;;;;;;5359681;26;19996;-93
2024/04/17 04:07:00;;;;;;;8.43;7.82;;;;;;;;;;5361351;26;20074;-93
2024/04/17 04:09:26;;;;;;;5.95;5.45;;;;;;;;;;5387990;26;19992;-94
2024/04/17 04:11:58;;;;;;;10.05;9.25;;;;;;;;;;5356871;26;20024;-96
2024/04/17 04:14:27;;;;;;;9.80;9.10;;;;;;;;;;5331160;26;20004;-93
2024/04/17 04:17:01;;;;;;;9.63;8.98;;;;;;;;;;5323685;26;20110;-94
2024/04/17 04:20:07;;;;;;;;;;;;;;;;;;;;;
2024/04/17 04:22:22;;;;;;;10.95;10.02;;;;;;;;;;5344348;26;19993;-94
2024/04/17 04:24:48;;;;;;;11.10;10.30;;;;;;;;;;5319001;26;19997;-93
2024/04/17 04:27:20;;;;;;;9.15;8.32;;;;;;;;;;5352056;26;20007;-93
2024/04/17 04:30:07;;;;;;;6.75;6.32;;;;;;;;;;5353620;26;20000;-90
2024/04/17 04:32:51;;;;;;;7.32;6.82;;;;;;;;;;5338015;26;20024;-92
2024/04/17 04:35:16;;;;;;;;;;;;;;;;;;5340052;26;20013;-91
2024/04/17 04:37:52;;;;;;;8.18;7.63;;;;;;;;;;5354114;26;19931;-96
2024/04/17 04:40:18;;;;;;;11.55;10.68;;;;;;;;;;5354316;26;20007;-92
2024/04/17 04:42:54;;;;;;;10.63;9.98;;;;;;;;;;5353918;26;20000;-95
2024/04/17 04:45:24;;;;;;;8.20;7.70;;;;;;;;;;5323320;26;20001;-94
2024/04/17 04:47:50;;;;;;;7.38;6.88;;;;;;;;;;5319391;26;20008;-94
2024/04/17 04:50:17;;;;;;;7.85;7.22;;;;;;;;;;5319925;26;20001;-93
2024/04/17 04:52:43;;;;;;;7.50;7.00;;;;;;;;;;5340519;26;20005;-91
2024/04/17 04:55:09;;;;;;;8.48;7.95;;;;;;;;;;5387469;26;20008;-94
2024/04/17 04:57:35;;;;;;;10.43;9.65;;;;;;;;;;5353102;26;20363;-94
2024/04/17 05:00:01;;;;;;;7.68;7.18;;;;;;;;;;5384495;26;20007;-93
2024/04/17 05:02:27;;;;;;;7.07;6.57;;;;;;;;;;5354195;26;20000;-93
2024/04/17 05:04:54;;;;;;;12.43;11.65;;;;;;;;;;5383347;26;20023;-93
2024/04/17 05:07:21;;;;;;;12.68;11.93;;;;;;;;;;5353603;26;20043;-94
2024/04/17 05:09:48;;;;;;;12.57;11.38;;;;;;;;;;5354367;26;20001;-93
2024/04/17 05:12:15;;;;;;;10.32;9.52;;;;;;;;;;5354469;26;19997;-94
2024/04/17 05:14:55;;;;;;;11.85;11.02;;;;;;;;;;5357389;26;20004;-96
2024/04/17 05:17:21;;;;;;;17.83;16.65;;;;;;;;;;5331663;26;20005;-93
2024/04/17 05:20:26;;;;;;;16.27;15.20;;;;;;;;;;5350301;26;20430;-95
2024/04/17 05:23:11;;;;;;;20.60;19.38;;;;;;;;;;5353217;21;20003;-96
2024/04/17 05:25:52;;;;;;;23.45;22.08;;;;;;;;;;5599104;21;20078;-96
2024/04/17 05:28:39;;;;;;;;;;;;;;;;;;;;;
2024/04/17 05:31:05;;;;;;;40.58;38.28;;;;;;;;;;5419739;26;20045;-94
2024/04/17 05:33:39;;;;;;;43.33;40.92;;;;;;;;;;5388318;26;19999;-95
2024/04/17 05:36:05;;;;;;;;;;;;;;;;;;5388943;26;20020;-96
2024/04/17 05:38:37;;;;;;;33.05;31.20;;;;;;;;;;5388920;26;19932;-92
2024/04/17 05:41:06;;;;;;;45.95;43.22;;;;;;;;;;5379338;26;19991;-95
2024/04/17 05:43:33;;;;;;;57.78;54.38;;;;;;;;;;5388219;26;20014;-93
2024/04/17 05:45:59;;;;;;;69.85;65.85;;;;;;;;;;5387798;26;20083;-93
2024/04/17 05:48:25;;;;;;;67.90;64.03;;;;;;;;;;5388265;26;20003;-93
2024/04/17 05:50:54;;;;;;;62.53;59.00;;;;;;;;;;5388470;26;20529;-93
2024/04/17 05:53:21;;;;;;;48.22;45.55;;;;;;;;;;5399864;26;19995;-92
2024/04/17 05:55:47;;;;;;;53.33;50.33;;;;;;;;;;5390238;26;20010;-93
2024/04/17 05:58:16;;;;;;;46.17;43.47;;;;;;;;;;5391234;26;20006;-95
2024/04/17 06:00:48;;;;;;;55.67;52.55;;;;;;;;;;5388176;26;20068;-94
2024/04/17 06:03:14;;;;;;;49.65;46.72;;;;;;;;;;5377223;26;20004;-96
2024/04/17 06:05:40;;;;;;;55.63;52.45;;;;;;;;;;5382086;26;19996;-93
2024/04/17 06:08:07;;;;;;;61.15;57.58;;;;;;;;;;5381760;26;20000;-94
2024/04/17 06:10:33;;;;;;;59.40;55.58;;;;;;;;;;5385199;26;20027;-94
2024/04/17 06:12:59;;;;;;;41.38;38.92;;;;;;;;;;5385989;26;20004;-94
2024/04/17 06:15:26;;;;;;;31.30;29.48;;;;;;;;;;5385528;26;20014;-94
2024/04/17 06:17:52;;;;;;;23.85;22.45;;;;;;;;;;5386357;26;19997;-94
2024/04/17 06:20:25;;;;;;;24.35;22.90;;;;;;;;;;5385947;26;20336;-95
2024/04/17 06:22:55;;;;;;;24.45;23.05;;;;;;;;;;5403071;26;20003;-96
2024/04/17 06:25:25;;;;;;;21.58;20.30;;;;;;;;;;5392464;26;20086;-96
2024/04/17 06:27:54;;;;;;;20.67;19.38;;;;;;;;;;5367144;26;20430;-96
2024/04/17 06:30:30;;;;;;;14.02;13.13;;;;;;;;;;5388734;26;20073;-96
2024/04/17 06:35:25;;;;;;;10.70;9.93;;;;;;;;;;5294373;27;20018;-95
2024/04/17 06:37:51;;;;;;;10.48;9.85;;;;;;;;;;5258215;27;20335;-96
2024/04/17 06:40:17;;;;;;;10.60;9.90;;;;;;;;;;5234006;27;20003;-94
2024/04/17 06:42:43;;;;;;;8.90;8.25;;;;;;;;;;5282153;27;20010;-95
2024/04/17 06:45:10;;;;;;;5.57;5.07;;;;;;;;;;5253154;27;20002;-95
2024/04/17 06:47:43;;;;;;;6.85;6.15;;;;;;;;;;5252814;27;20016;-96
2024/04/17 06:50:13;;;;;;;0.03;0.03;;;;;;;;;;5281051;27;20006;-95
2024/04/17 06:52:39;;;;;;;13.60;12.75;;;;;;;;;;5253996;27;20033;-95
2024/04/17 06:55:40;;;;;;;9.30;8.60;;;;;;;;;;5280375;27;20006;-92
2024/04/17 06:58:13;;;;;;;15.38;14.38;;;;;;;;;;5281778;27;20002;-95
2024/04/17 07:01:10;;;;;;;12.75;11.98;;;;;;;;;;5283147;27;20003;-92
2024/04/17 07:03:37;;;;;;;10.60;9.75;;;;;;;;;;5282405;27;20017;-95
2024/04/17 07:06:06;;;;;;;10.48;9.77;;;;;;;;;;5283704;27;20003;-95
2024/04/17 07:08:35;;;;;;;10.48;9.77;;;;;;;;;;5275331;27;20003;-95
2024/04/17 07:20:19;;;;;;;11.85;10.95;;;;;;;;;;5308602;27;20017;-94
2024/04/17 07:22:48;;;;;;;14.75;13.75;;;;;;;;;;5314685;27;20012;-93
2024/04/17 07:25:17;;;;;;;12.32;11.43;;;;;;;;;;5286993;27;20053;-93
2024/04/17 07:27:49;;;;;;;13.38;12.48;;;;;;;;;;5289276;27;20439;-94
2024/04/17 07:30:16;;;;;;;14.68;13.70;;;;;;;;;;5252337;27;19999;-93
2024/04/17 07:32:42;;;;;;;12.02;11.13;;;;;;;;;;5252446;27;20002;-94
2024/04/17 07:35:08;;;;;;;11.90;11.10;;;;;;;;;;5280282;27;20058;-95
2024/04/17 07:37:34;;;;;;;10.85;10.05;;;;;;;;;;5253963;27;20003;-94
2024/04/17 07:40:07;;;;;;;9.55;8.65;;;;;;;;;;5252805;27;20017;-92
2024/04/17 07:42:36;;;;;;;;;;;;;;;;;;5252422;27;19998;-96
2024/04/17 07:45:02;;;;;;;10.75;9.95;;;;;;;;;;5279889;27;19933;-94
2024/04/17 07:47:31;;;;;;;9.52;8.80;;;;;;;;;;5280121;27;20013;-94
2024/04/17 07:50:00;;;;;;;8.25;7.65;;;;;;;;;;5280106;27;20014;-93
2024/04/17 07:52:26;;;;;;;9.45;8.75;;;;;;;;;;5224522;27;20437;-91
2024/04/17 07:54:55;;;;;;;10.48;9.68;;;;;;;;;;5248281;27;20013;-93
2024/04/17 07:57:21;;;;;;;17.05;15.85;;;;;;;;;;5254153;27;20002;-92
2024/04/17 08:00:04;;;;;;;;;;;;;;;;;;;;;
2024/04/17 08:02:33;;;;;;;25.98;24.30;;;;;;;;;;5283919;27;20360;-94
2024/04/17 08:04:59;;;;;;;22.30;20.90;;;;;;;;;;5268200;27;20135;-96
2024/04/17 08:07:28;;;;;;;23.98;22.48;;;;;;;;;;5252647;27;20005;-93
2024/04/17 08:10:33;;;;;;;20.77;19.38;;;;;;;;;;5253453;27;20081;-96
2024/04/17 08:13:11;;;;;;;19.65;18.45;;;;;;;;;;5196538;27;20002;-92
2024/04/17 08:15:56;;;;;;;23.20;21.80;;;;;;;;;;5298921;27;19994;-96
2024/04/17 08:18:26;;;;;;;19.05;17.55;;;;;;;;;;5256828;27;20003;-91
2024/04/17 08:21:02;;;;;;;27.98;26.23;;;;;;;;;;5263684;27;20007;-95
2024/04/17 08:23:32;;;;;;;19.70;18.40;;;;;;;;;;5289327;27;20072;-94
2024/04/17 08:25:58;;;;;;;23.38;21.90;;;;;;;;;;5293726;27;20053;-93
2024/04/17 08:28:24;;;;;;;22.83;21.42;;;;;;;;;;5252280;27;20321;-96
2024/04/17 08:30:57;;;;;;;19.25;18.08;;;;;;;;;;5266745;27;20006;-91
2024/04/17 08:33:29;;;;;;;24.70;23.07;;;;;;;;;;5294586;27;20467;-96
2024/04/17 08:35:55;;;;;;;26.23;24.55;;;;;;;;;;5251456;27;20010;-96
2024/04/17 08:38:21;;;;;;;24.42;22.98;;;;;;;;;;5279152;27;20019;-93
2024/04/17 08:40:53;;;;;;;20.67;19.40;;;;;;;;;;5279223;27;20017;-92
2024/04/17 08:43:57;;;;;;;18.27;17.03;;;;;;;;;;5280716;27;20003;-96
2024/04/17 08:49:50;;;;;;;25.65;23.38;;;;;;;;;;5268437;27;20073;-93
2024/04/17 08:52:18;;;;;;;14.02;13.13;;;;;;;;;;5245024;27;20003;-93
2024/04/17 08:54:46;;;;;;;12.63;11.05;;;;;;;;;;5250106;27;20017;-93
2024/04/17 08:57:19;;;;;;;14.02;13.15;;;;;;;;;;5279523;27;20006;-94
2024/04/17 08:59:45;;;;;;;11.02;10.32;;;;;;;;;;5280006;27;20030;-92
2024/04/17 09:02:23;;;;;;;15.80;14.80;;;;;;;;;;5279266;27;20013;-93
2024/04/17 09:04:53;;;;;;;15.15;14.07;;;;;;;;;;5279118;27;20013;-93
2024/04/17 09:07:21;;;;;;;11.80;10.88;;;;;;;;;;5279131;27;20002;-92
2024/04/17 09:09:50;;;;;;;9.25;8.48;;;;;;;;;;5279282;27;20446;-92
2024/04/17 09:12:16;;;;;;;16.98;15.18;;;;;;;;;;5251874;27;20003;-95
2024/04/17 09:14:43;;;;;;;14.50;13.27;;;;;;;;;;5278808;27;20080;-93
2024/04/17 09:17:12;;;;;;;15.48;14.48;;;;;;;;;;5251271;27;19998;-95
2024/04/17 09:19:41;;;;;;;17.85;16.70;;;;;;;;;;5280119;27;19998;-95
2024/04/17 09:22:48;;;;;;;17.83;16.50;;;;;;;;;;5233422;27;20011;-96
2024/04/17 09:25:46;;;;;;;18.92;17.77;;;;;;;;;;5244182;27;19995;-96
2024/04/17 09:28:12;;;;;;;24.55;22.83;;;;;;;;;;5254890;27;19999;-96
2024/04/17 09:30:42;;;;;;;22.48;20.90;;;;;;;;;;5286303;27;20052;-96
2024/04/17 09:33:26;;;;;;;30.73;28.85;;;;;;;;;;5284891;27;20006;-94
2024/04/17 09:35:57;;;;;;;33.65;31.58;;;;;;;;;;5283043;27;20357;-93
2024/04/17 09:38:23;;;;;;;41.45;39.05;;;;;;;;;;5280854;27;20026;-95
2024/04/17 09:44:26;;;;;;;36.13;33.80;;;;;;;;;;5178245;27;20003;-95
2024/04/17 09:47:02;;;;;;;33.40;31.15;;;;;;;;;;5153407;27;20092;-95
2024/04/17 09:49:29;;;;;;;21.17;19.80;;;;;;;;;;5275877;27;19999;-94
2024/04/17 09:52:07;;;;;;;19.90;18.70;;;;;;;;;;5280933;27;20002;-91
2024/04/17 09:54:43;;;;;;;29.45;27.65;;;;;;;;;;5282127;27;20010;-94
2024/04/17 09:57:16;;;;;;;31.30;29.40;;;;;;;;;;5248882;27;20002;-94
2024/04/17 09:59:45;;;;;;;35.77;33.73;;;;;;;;;;5297794;27;20006;-89
2024/04/17 10:02:16;;;;;;;34.40;32.40;;;;;;;;;;5292725;27;20431;-93
2024/04/17 10:04:45;;;;;;;36.55;34.45;;;;;;;;;;5270139;27;20002;-93
2024/04/17 10:07:32;;;;;;;20.95;19.55;;;;;;;;;;5280822;27;20444;-91
2024/04/17 10:10:02;;;;;;;33.17;31.17;;;;;;;;;;5280647;27;20010;-94
2024/04/17 10:12:33;;;;;;;26.98;25.38;;;;;;;;;;5279231;27;20080;-96
2024/04/17 10:15:02;;;;;;;36.55;34.35;;;;;;;;;;5250619;27;20046;-94
2024/04/17 10:17:32;;;;;;;35.28;33.10;;;;;;;;;;5249734;27;20709;-93
2024/04/17 10:19:58;;;;;;;31.60;29.77;;;;;;;;;;5249775;27;20047;-90
2024/04/17 10:22:57;;;;;;;33.92;31.92;;;;;;;;;;5249772;27;20045;-94
2024/04/17 10:25:26;;;;;;;34.65;32.65;;;;;;;;;;5249125;27;20002;-91
2024/04/17 10:28:10;;;;;;;33.70;31.67;;;;;;;;;;5250033;27;20006;-94
2024/04/17 10:33:39;;;;;;;44.13;41.42;;;;;;;;;;5289244;27;19966;-94
2024/04/17 10:36:08;;;;;;;40.58;38.20;;;;;;;;;;5312517;27;20008;-93
2024/04/17 10:38:35;;;;;;;41.25;38.85;;;;;;;;;;5314523;27;20075;-93
2024/04/17 10:41:05;;;;;;;42.75;40.28;;;;;;;;;;5312172;27;20001;-92
2024/04/17 10:43:32;;;;;;;43.70;41.15;;;;;;;;;;5312506;27;20053;-92
2024/04/17 10:52:25;;;;;;;44.87;42.27;;;;;;;;;;5279262;27;20040;-94
2024/04/17 10:55:04;;;;;;;45.88;43.30;;;;;;;;;;5309941;27;20125;-93
2024/04/17 10:58:30;;;;;;;39.50;37.20;;;;;;;;;;5250184;27;20076;-95
2024/04/17 11:03:49;;;;;;;43.85;41.35;;;;;;;;;;5154197;27;20020;-96
2024/04/17 11:06:23;;;;;;;47.30;44.50;;;;;;;;;;5127314;27;20081;-95
2024/04/17 11:09:07;;;;;;;59.38;56.03;;;;;;;;;;5155210;27;20016;-95
2024/04/17 11:11:48;;;;;;;38.45;36.22;;;;;;;;;;5124740;27;20009;-96
2024/04/17 11:14:15;;;;;;;40.10;37.88;;;;;;;;;;5132322;27;20356;-95
2024/04/17 11:16:48;;;;;;;34.00;32.00;;;;;;;;;;5239518;27;20278;-94
2024/04/17 11:19:15;;;;;;;35.17;33.10;;;;;;;;;;5189133;27;20015;-95
2024/04/17 11:25:02;;;;;;;34.58;32.60;;;;;;;;;;5186152;27;20003;-96
2024/04/17 11:27:59;;;;;;;38.30;36.03;;;;;;;;;;5163323;27;20012;-96
2024/04/17 11:30:27;;;;;;;42.22;39.83;;;;;;;;;;5190883;27;20008;-96
2024/04/17 11:36:37;;;;;;;46.05;43.35;;;;;;;;;;5180796;27;20001;-96
2024/04/17 11:39:07;;;;;;;44.83;42.20;;;;;;;;;;5100970;27;20014;-95
2024/04/17 11:41:38;;;;;;;43.08;40.55;;;;;;;;;;5181565;27;20004;-95
2024/04/17 11:44:04;;;;;;;47.67;44.97;;;;;;;;;;5174127;27;20044;-94
2024/04/17 11:46:39;;;;;;;46.15;43.05;;;;;;;;;;5168875;27;20000;-96
2024/04/17 11:49:15;;;;;;;46.60;43.95;;;;;;;;;;5184545;27;20001;-96
2024/04/17 11:52:00;;;;;;;42.65;40.20;;;;;;;;;;5160521;27;20023;-95
2024/04/17 11:54:27;;;;;;;37.65;35.47;;;;;;;;;;5202015;27;20007;-95
2024/04/17 11:56:56;;;;;;;43.90;41.35;;;;;;;;;;5289067;27;20005;-96
2024/04/17 11:59:30;;;;;;;39.30;37.10;;;;;;;;;;5289613;27;20006;-96
2024/04/17 12:01:56;;;;;;;38.00;35.80;;;;;;;;;;5285040;27;20006;-96
2024/04/17 12:04:33;;;;;;;43.03;40.55;;;;;;;;;;5255406;27;19998;-95
2024/04/17 12:07:11;;;;;;;43.13;40.60;;;;;;;;;;5228181;27;20010;-93
2024/04/17 12:09:42;;;;;;;43.88;41.17;;;;;;;;;;5249809;27;20046;-94
2024/04/17 12:12:22;;;;;;;;;;;;;;;;;;;;;
2024/04/17 12:15:00;;;;;;;43.97;41.35;;;;;;;;;;5284391;27;20002;-96
2024/04/17 12:17:27;;;;;;;48.70;45.83;;;;;;;;;;5289178;27;19994;-93
2024/04/17 12:19:53;;;;;;;51.72;48.58;;;;;;;;;;5284062;27;19994;-95
2024/04/17 12:22:25;;;;;;;58.30;54.97;;;;;;;;;;5257499;27;20045;-94
2024/04/17 12:27:52;;;;;;;51.70;48.75;;;;;;;;;;5288093;27;20407;-95
2024/04/17 12:30:18;;;;;;;58.67;55.35;;;;;;;;;;5291387;27;20450;-94
2024/04/17 12:32:44;;;;;;;47.75;44.95;;;;;;;;;;5282616;27;20076;-94
2024/04/17 12:35:52;;;;;;;47.25;44.55;;;;;;;;;;5281443;27;20002;-94
2024/04/17 12:38:27;;;;;;;58.33;55.05;;;;;;;;;;5213955;27;20004;-91
2024/04/17 12:40:53;;;;;;;52.30;49.30;;;;;;;;;;5217053;27;20003;-93
2024/04/17 12:43:22;;;;;;;49.58;46.65;;;;;;;;;;5212474;27;20015;-93
2024/04/17 12:45:56;;;;;;;46.25;43.58;;;;;;;;;;5219958;27;20003;-93
2024/04/17 12:48:37;;;;;;;57.20;53.90;;;;;;;;;;5253050;27;19995;-94
2024/04/17 12:51:57;;;;;;;53.45;50.00;;;;;;;;;;5224889;27;20010;-93
2024/04/17 12:55:00;;;;;;;51.45;48.55;;;;;;;;;;5152683;27;20008;-96
2024/04/17 12:57:30;;;;;;;48.13;45.30;;;;;;;;;;5156281;27;20010;-95
2024/04/17 12:59:59;;;;;;;56.00;52.90;;;;;;;;;;5162336;27;20108;-95
2024/04/17 13:02:28;;;;;;;56.97;53.60;;;;;;;;;;5156647;27;20603;-93
2024/04/17 13:14:31;;;;;;;63.90;60.30;;;;;;;;;;5099685;27;20001;-96
2024/04/17 13:17:52;;;;;;;48.15;45.45;;;;;;;;;;5210135;27;20074;-95
2024/04/17 13:32:33;;;;;;;41.67;39.17;;;;;;;;;;5803261;21;20004;-96
2024/04/17 13:35:22;;;;;;;48.28;45.50;;;;;;;;;;5362106;26;20004;-95
2024/04/17 13:44:14;;;;;;;52.90;49.80;;;;;;;;;;5239198;27;20017;-93
2024/04/17 13:46:44;;;;;;;58.33;54.90;;;;;;;;;;5279503;27;20501;-95
2024/04/17 13:49:23;;;;;;;62.05;58.42;;;;;;;;;;5710562;21;20112;-92
2024/04/17 13:54:54;;;;;;;42.60;40.30;;;;;;;;;;5807691;21;20000;-93
2024/04/17 13:57:24;;;;;;;48.13;45.33;;;;;;;;;;5386113;26;20035;-93
2024/04/17 13:59:59;;;;;;;45.35;42.63;;;;;;;;;;5328541;26;20437;-92
2024/04/17 14:03:03;;;;;;;45.28;42.72;;;;;;;;;;5390684;26;20000;-93
2024/04/17 14:05:35;;;;;;;45.72;43.20;;;;;;;;;;5390782;26;20004;-95
2024/04/17 14:08:02;;;;;;;44.33;41.83;;;;;;;;;;5387248;26;20016;-94
2024/04/17 14:10:31;;;;;;;55.88;52.70;;;;;;;;;;5383809;26;20429;-93
2024/04/17 14:22:18;;;;;;;52.08;49.00;;;;;;;;;;5413981;26;20072;-93
2024/04/17 14:24:44;;;;;;;45.58;43.05;;;;;;;;;;5347177;26;20450;-94
2024/04/17 14:27:18;;;;;;;45.15;42.60;;;;;;;;;;5317732;26;20040;-95
2024/04/17 14:29:44;;;;;;;52.65;49.65;;;;;;;;;;5318485;26;19997;-96
2024/04/17 14:32:13;;;;;;;49.65;46.85;;;;;;;;;;5352495;26;20453;-95
2024/04/17 14:34:40;;;;;;;49.55;46.55;;;;;;;;;;5329733;26;19997;-92
2024/04/17 14:37:09;;;;;;;49.60;46.70;;;;;;;;;;5319531;26;19993;-95
2024/04/17 14:39:35;;;;;;;47.70;45.03;;;;;;;;;;5319613;26;19997;-91
2024/04/17 14:42:05;;;;;;;53.58;50.58;;;;;;;;;;5332744;26;20000;-92
2024/04/17 14:44:32;;;;;;;48.92;46.15;;;;;;;;;;5319600;26;20145;-92
2024/04/17 14:47:01;;;;;;;50.03;47.00;;;;;;;;;;5322214;26;20001;-91
2024/04/17 14:49:38;;;;;;;50.85;47.95;;;;;;;;;;5319639;26;20008;-92
2024/04/17 14:52:04;;;;;;;46.67;43.97;;;;;;;;;;5361283;26;20004;-92
2024/04/17 14:54:31;;;;;;;56.22;53.05;;;;;;;;;;5354426;26;20004;-93
2024/04/17 14:57:03;;;;;;;44.03;41.47;;;;;;;;;;5391147;26;19995;-93
2024/04/17 14:59:30;;;;;;;42.80;40.47;;;;;;;;;;5406784;26;19995;-92
2024/04/17 15:02:02;;;;;;;41.65;39.22;;;;;;;;;;5421269;26;20041;-95
2024/04/17 15:04:28;;;;;;;46.20;43.60;;;;;;;;;;5420506;26;20006;-94
2024/04/17 15:06:57;;;;;;;47.40;44.63;;;;;;;;;;5421210;26;20012;-92
2024/04/17 15:09:26;;;;;;;47.15;44.35;;;;;;;;;;5396570;26;19992;-92
2024/04/17 15:12:14;;;;;;;53.03;49.83;;;;;;;;;;5470314;21;20032;-93
2024/04/17 15:21:10;;;;;;;41.55;39.17;;;;;;;;;;5212102;27;20010;-94
2024/04/17 15:23:41;;;;;;;51.70;48.70;;;;;;;;;;5314517;27;19998;-93
2024/04/17 15:26:17;;;;;;;47.72;44.75;;;;;;;;;;5314419;27;20017;-95
2024/04/17 15:28:47;;;;;;;47.40;44.75;;;;;;;;;;5314225;27;20002;-94
2024/04/17 15:31:15;;;;;;;40.50;38.20;;;;;;;;;;5313869;27;19997;-95
2024/04/17 15:33:41;;;;;;;43.72;41.13;;;;;;;;;;5318894;26;20426;-94
2024/04/17 15:36:08;;;;;;;41.97;39.50;;;;;;;;;;5319478;26;20020;-92
2024/04/17 15:38:35;;;;;;;44.00;41.28;;;;;;;;;;5320290;26;20430;-92
2024/04/17 15:41:01;;;;;;;52.03;49.13;;;;;;;;;;5318668;26;19993;-95
2024/04/17 15:43:28;;;;;;;38.38;36.28;;;;;;;;;;5319445;26;19993;-93
2024/04/17 15:45:55;;;;;;;41.63;39.30;;;;;;;;;;5319766;26;20066;-93
2024/04/17 15:48:23;;;;;;;38.15;36.05;;;;;;;;;;5319316;26;20003;-91
2024/04/17 15:50:53;;;;;;;48.97;45.20;;;;;;;;;;5342198;26;19996;-93
2024/04/17 15:53:23;;;;;;;47.10;44.38;;;;;;;;;;5346113;26;19995;-90
2024/04/17 15:55:55;;;;;;;48.53;45.83;;;;;;;;;;5318485;26;20458;-95
2024/04/17 15:58:21;;;;;;;48.83;45.95;;;;;;;;;;5318058;26;20122;-93
2024/04/17 16:01:08;;;;;;;50.63;47.75;;;;;;;;;;5318387;26;19993;-93
2024/04/17 16:03:38;;;;;;;40.45;38.13;;;;;;;;;;5317433;26;20067;-91
2024/04/17 16:06:22;;;;;;;55.88;52.72;;;;;;;;;;5318441;26;20430;-92
2024/04/17 16:11:41;;;;;;;49.28;46.22;;;;;;;;;;5222516;27;19999;-91
2024/04/17 16:14:26;;;;;;;63.58;59.92;;;;;;;;;;5244937;27;20006;-93
2024/04/17 16:16:55;;;;;;;56.85;53.63;;;;;;;;;;5246506;27;20007;-93
2024/04/17 16:19:37;;;;;;;60.45;56.95;;;;;;;;;;5219188;27;19999;-91
2024/04/17 16:22:03;;;;;;;55.05;51.85;;;;;;;;;;5261371;26;19993;-90
2024/04/17 16:24:29;;;;;;;50.85;48.00;;;;;;;;;;5336442;26;19996;-90
2024/04/17 16:27:03;;;;;;;55.10;51.85;;;;;;;;;;5337932;26;20425;-89
2024/04/17 16:29:53;;;;;;;48.33;45.63;;;;;;;;;;5353491;26;20011;-91
2024/04/17 16:32:36;;;;;;;51.45;48.40;;;;;;;;;;5385790;26;20004;-95
2024/04/17 16:35:21;;;;;;;49.10;46.03;;;;;;;;;;5365789;26;20047;-94
2024/04/17 16:37:56;;;;;;;51.55;48.58;;;;;;;;;;5347409;26;20016;-94
2024/04/17 16:40:23;;;;;;;52.50;49.55;;;;;;;;;;5334898;26;20001;-94
2024/04/17 16:42:49;;;;;;;51.58;48.50;;;;;;;;;;5334553;26;20032;-96
2024/04/17 16:48:23;;;;;;;54.83;51.65;;;;;;;;;;5371403;26;20008;-96
2024/04/17 16:54:40;;;;;;;42.10;39.47;;;;;;;;;;5276764;27;20042;-93
2024/04/17 16:57:13;;;;;;;52.70;49.75;;;;;;;;;;5251497;26;20076;-90
2024/04/17 16:59:52;;;;;;;55.60;52.50;;;;;;;;;;5286956;26;20002;-95
2024/04/17 17:02:31;;;;;;;45.95;42.95;;;;;;;;;;5208773;27;20020;-96
2024/04/17 17:05:07;;;;;;;40.00;37.67;;;;;;;;;;5189932;27;20011;-94
2024/04/17 17:07:34;;;;;;;42.03;39.53;;;;;;;;;;5228474;27;20009;-96
2024/04/17 17:10:10;;;;;;;42.25;39.80;;;;;;;;;;5286685;27;20022;-94
2024/04/17 17:12:48;;;;;;;32.88;30.92;;;;;;;;;;5282241;27;19994;-94
2024/04/17 17:15:14;;;;;;;27.83;25.95;;;;;;;;;;5282578;27;20011;-93
2024/04/17 17:17:40;;;;;;;23.30;21.80;;;;;;;;;;5283046;27;20174;-94
2024/04/17 17:20:07;;;;;;;22.10;20.80;;;;;;;;;;5282007;27;20002;-95
2024/04/17 17:22:37;;;;;;;26.10;24.55;;;;;;;;;;5284113;27;19997;-95